sensor_id;sensor_type;location;lat;lon;timestamp;P1;durP1;ratioP1;P2;durP2;ratioP2
37311;SDS011;23197;53.912;9.138;2022-09-09T00:00:49;1.70;;;0.90;;
37311;SDS011;23197;53.912;9.138;2022-09-09T00:03:42;0.73;;;0.50;;
37311;SDS011;23197;53.912;9.138;2022-09-09T00:06:14;0.38;;;0.38;;
37311;SDS011;23197;53.912;9.138;2022-09-09T00:12:01;0.40;;;0.28;;
37311;SDS011;23197;53.912;9.138;2022-09-09T00:20:43;0.47;;;0.30;;
37311;SDS011;23197;53.912;9.138;2022-09-09T00:23:14;0.57;;;0.30;;
37311;SDS011;23197;53.912;9.138;2022-09-09T00:26:08;0.20;;;0.20;;
37311;SDS011;23197;53.912;9.138;2022-09-09T00:28:44;0.52;;;0.40;;
37311;SDS011;23197;53.912;9.138;2022-09-09T00:31:18;0.20;;;0.20;;
37311;SDS011;23197;53.912;9.138;2022-09-09T00:33:49;0.25;;;0.20;;
37311;SDS011;23197;53.912;9.138;2022-09-09T00:36:18;0.15;;;0.15;;
37311;SDS011;23197;53.912;9.138;2022-09-09T00:38:57;0.50;;;0.32;;
37311;SDS011;23197;53.912;9.138;2022-09-09T00:41:33;0.38;;;0.30;;
37311;SDS011;23197;53.912;9.138;2022-09-09T00:49:28;0.28;;;0.28;;
37311;SDS011;23197;53.912;9.138;2022-09-09T00:52:18;0.30;;;0.25;;
37311;SDS011;23197;53.912;9.138;2022-09-09T00:54:53;0.20;;;0.20;;
37311;SDS011;23197;53.912;9.138;2022-09-09T00:57:34;0.17;;;0.17;;
37311;SDS011;23197;53.912;9.138;2022-09-09T01:00:18;0.82;;;0.50;;
37311;SDS011;23197;53.912;9.138;2022-09-09T01:11:41;0.32;;;0.28;;
37311;SDS011;23197;53.912;9.138;2022-09-09T01:17:01;0.40;;;0.40;;
37311;SDS011;23197;53.912;9.138;2022-09-09T01:22:26;0.50;;;0.40;;
37311;SDS011;23197;53.912;9.138;2022-09-09T01:27:59;1.60;;;0.80;;
37311;SDS011;23197;53.912;9.138;2022-09-09T01:30:37;1.65;;;0.88;;
37311;SDS011;23197;53.912;9.138;2022-09-09T01:33:04;1.08;;;0.60;;
37311;SDS011;23197;53.912;9.138;2022-09-09T01:35:51;0.68;;;0.50;;
37311;SDS011;23197;53.912;9.138;2022-09-09T01:38:25;0.60;;;0.40;;
37311;SDS011;23197;53.912;9.138;2022-09-09T01:40:52;1.15;;;0.50;;
37311;SDS011;23197;53.912;9.138;2022-09-09T01:43:22;0.43;;;0.40;;
37311;SDS011;23197;53.912;9.138;2022-09-09T01:45:54;0.47;;;0.30;;
37311;SDS011;23197;53.912;9.138;2022-09-09T01:48:21;0.25;;;0.25;;
37311;SDS011;23197;53.912;9.138;2022-09-09T01:51:00;0.40;;;0.30;;
37311;SDS011;23197;53.912;9.138;2022-09-09T01:53:26;0.50;;;0.40;;
37311;SDS011;23197;53.912;9.138;2022-09-09T02:01:24;0.30;;;0.20;;
37311;SDS011;23197;53.912;9.138;2022-09-09T02:03:59;0.32;;;0.20;;
37311;SDS011;23197;53.912;9.138;2022-09-09T02:06:34;0.50;;;0.30;;
37311;SDS011;23197;53.912;9.138;2022-09-09T02:09:23;0.60;;;0.40;;
37311;SDS011;23197;53.912;9.138;2022-09-09T02:11:54;0.50;;;0.32;;
37311;SDS011;23197;53.912;9.138;2022-09-09T02:14:36;0.30;;;0.22;;
37311;SDS011;23197;53.912;9.138;2022-09-09T02:17:11;0.20;;;0.20;;
37311;SDS011;23197;53.912;9.138;2022-09-09T02:19:54;0.52;;;0.20;;
37311;SDS011;23197;53.912;9.138;2022-09-09T02:22:38;0.47;;;0.30;;
37311;SDS011;23197;53.912;9.138;2022-09-09T02:25:07;0.68;;;0.32;;
37311;SDS011;23197;53.912;9.138;2022-09-09T02:27:35;0.50;;;0.40;;
37311;SDS011;23197;53.912;9.138;2022-09-09T02:30:01;1.00;;;0.47;;
37311;SDS011;23197;53.912;9.138;2022-09-09T02:32:37;0.80;;;0.38;;
37311;SDS011;23197;53.912;9.138;2022-09-09T02:35:08;0.30;;;0.30;;
37311;SDS011;23197;53.912;9.138;2022-09-09T02:37:38;0.40;;;0.30;;
37311;SDS011;23197;53.912;9.138;2022-09-09T02:40:06;0.90;;;0.50;;
37311;SDS011;23197;53.912;9.138;2022-09-09T02:42:40;0.65;;;0.30;;
37311;SDS011;23197;53.912;9.138;2022-09-09T02:45:11;0.40;;;0.30;;
37311;SDS011;23197;53.912;9.138;2022-09-09T02:47:47;1.00;;;0.40;;
37311;SDS011;23197;53.912;9.138;2022-09-09T02:50:26;1.48;;;0.73;;
37311;SDS011;23197;53.912;9.138;2022-09-09T02:53:10;1.27;;;0.65;;
37311;SDS011;23197;53.912;9.138;2022-09-09T02:55:51;0.70;;;0.40;;
37311;SDS011;23197;53.912;9.138;2022-09-09T02:58:22;0.57;;;0.30;;
37311;SDS011;23197;53.912;9.138;2022-09-09T03:00:56;0.77;;;0.40;;
37311;SDS011;23197;53.912;9.138;2022-09-09T03:03:23;0.40;;;0.30;;
37311;SDS011;23197;53.912;9.138;2022-09-09T03:05:50;1.30;;;0.60;;
37311;SDS011;23197;53.912;9.138;2022-09-09T03:08:15;0.70;;;0.40;;
37311;SDS011;23197;53.912;9.138;2022-09-09T03:10:42;1.58;;;0.70;;
37311;SDS011;23197;53.912;9.138;2022-09-09T03:13:07;1.40;;;0.55;;
37311;SDS011;23197;53.912;9.138;2022-09-09T03:15:37;1.60;;;0.90;;
37311;SDS011;23197;53.912;9.138;2022-09-09T03:18:08;1.83;;;0.80;;
37311;SDS011;23197;53.912;9.138;2022-09-09T03:20:34;1.08;;;0.50;;
37311;SDS011;23197;53.912;9.138;2022-09-09T03:23:00;1.50;;;0.70;;
37311;SDS011;23197;53.912;9.138;2022-09-09T03:25:26;1.45;;;0.73;;
37311;SDS011;23197;53.912;9.138;2022-09-09T03:27:53;1.98;;;1.02;;
37311;SDS011;23197;53.912;9.138;2022-09-09T03:30:24;3.22;;;0.80;;
37311;SDS011;23197;53.912;9.138;2022-09-09T03:32:50;1.75;;;0.90;;
37311;SDS011;23197;53.912;9.138;2022-09-09T03:35:17;2.30;;;1.10;;
37311;SDS011;23197;53.912;9.138;2022-09-09T03:37:43;3.55;;;1.65;;
37311;SDS011;23197;53.912;9.138;2022-09-09T03:40:11;2.10;;;1.20;;
37311;SDS011;23197;53.912;9.138;2022-09-09T03:42:37;2.28;;;1.10;;
37311;SDS011;23197;53.912;9.138;2022-09-09T03:45:04;2.13;;;1.10;;
37311;SDS011;23197;53.912;9.138;2022-09-09T03:47:32;1.90;;;1.00;;
37311;SDS011;23197;53.912;9.138;2022-09-09T03:50:04;2.70;;;1.10;;
37311;SDS011;23197;53.912;9.138;2022-09-09T03:52:34;1.60;;;0.90;;
37311;SDS011;23197;53.912;9.138;2022-09-09T03:55:07;1.80;;;0.73;;
37311;SDS011;23197;53.912;9.138;2022-09-09T03:57:33;1.60;;;0.80;;
37311;SDS011;23197;53.912;9.138;2022-09-09T04:00:04;2.03;;;1.10;;
37311;SDS011;23197;53.912;9.138;2022-09-09T04:02:41;2.22;;;1.17;;
37311;SDS011;23197;53.912;9.138;2022-09-09T04:05:09;2.15;;;1.10;;
37311;SDS011;23197;53.912;9.138;2022-09-09T04:07:36;2.78;;;1.40;;
37311;SDS011;23197;53.912;9.138;2022-09-09T04:10:02;2.00;;;1.02;;
37311;SDS011;23197;53.912;9.138;2022-09-09T04:12:28;1.77;;;0.90;;
37311;SDS011;23197;53.912;9.138;2022-09-09T04:14:54;1.45;;;0.70;;
37311;SDS011;23197;53.912;9.138;2022-09-09T04:17:20;1.90;;;0.80;;
37311;SDS011;23197;53.912;9.138;2022-09-09T04:19:45;1.02;;;0.60;;
37311;SDS011;23197;53.912;9.138;2022-09-09T04:22:12;1.58;;;0.60;;
37311;SDS011;23197;53.912;9.138;2022-09-09T04:24:37;2.25;;;0.80;;
37311;SDS011;23197;53.912;9.138;2022-09-09T04:27:03;1.55;;;0.65;;
37311;SDS011;23197;53.912;9.138;2022-09-09T04:29:30;1.48;;;0.70;;
37311;SDS011;23197;53.912;9.138;2022-09-09T04:31:55;1.92;;;0.80;;
37311;SDS011;23197;53.912;9.138;2022-09-09T04:34:21;1.45;;;0.60;;
37311;SDS011;23197;53.912;9.138;2022-09-09T04:36:46;2.00;;;0.98;;
37311;SDS011;23197;53.912;9.138;2022-09-09T04:39:12;2.20;;;1.05;;
37311;SDS011;23197;53.912;9.138;2022-09-09T04:41:37;2.20;;;1.13;;
37311;SDS011;23197;53.912;9.138;2022-09-09T04:44:04;1.77;;;0.70;;
37311;SDS011;23197;53.912;9.138;2022-09-09T04:46:31;1.70;;;0.73;;
37311;SDS011;23197;53.912;9.138;2022-09-09T04:48:56;1.35;;;0.70;;
37311;SDS011;23197;53.912;9.138;2022-09-09T04:51:26;1.13;;;0.65;;
37311;SDS011;23197;53.912;9.138;2022-09-09T04:53:53;1.23;;;0.70;;
37311;SDS011;23197;53.912;9.138;2022-09-09T04:56:19;0.50;;;0.35;;
37311;SDS011;23197;53.912;9.138;2022-09-09T04:58:50;0.50;;;0.30;;
37311;SDS011;23197;53.912;9.138;2022-09-09T05:01:17;1.08;;;0.60;;
37311;SDS011;23197;53.912;9.138;2022-09-09T05:03:45;1.23;;;0.57;;
37311;SDS011;23197;53.912;9.138;2022-09-09T05:06:16;0.68;;;0.50;;
37311;SDS011;23197;53.912;9.138;2022-09-09T05:08:43;0.93;;;0.50;;
37311;SDS011;23197;53.912;9.138;2022-09-09T05:11:29;0.93;;;0.50;;
37311;SDS011;23197;53.912;9.138;2022-09-09T05:14:19;1.00;;;0.50;;
37311;SDS011;23197;53.912;9.138;2022-09-09T05:16:45;1.10;;;0.60;;
37311;SDS011;23197;53.912;9.138;2022-09-09T05:19:12;0.77;;;0.50;;
37311;SDS011;23197;53.912;9.138;2022-09-09T05:21:43;1.08;;;0.52;;
37311;SDS011;23197;53.912;9.138;2022-09-09T05:24:08;1.02;;;0.55;;
37311;SDS011;23197;53.912;9.138;2022-09-09T05:26:35;0.95;;;0.50;;
37311;SDS011;23197;53.912;9.138;2022-09-09T05:29:01;0.98;;;0.50;;
37311;SDS011;23197;53.912;9.138;2022-09-09T05:31:29;0.85;;;0.50;;
37311;SDS011;23197;53.912;9.138;2022-09-09T05:33:55;0.70;;;0.50;;
37311;SDS011;23197;53.912;9.138;2022-09-09T05:36:21;0.55;;;0.40;;
37311;SDS011;23197;53.912;9.138;2022-09-09T05:38:51;0.90;;;0.43;;
37311;SDS011;23197;53.912;9.138;2022-09-09T05:41:19;0.38;;;0.30;;
37311;SDS011;23197;53.912;9.138;2022-09-09T05:43:46;0.68;;;0.40;;
37311;SDS011;23197;53.912;9.138;2022-09-09T05:46:15;0.45;;;0.30;;
37311;SDS011;23197;53.912;9.138;2022-09-09T05:48:41;0.50;;;0.40;;
37311;SDS011;23197;53.912;9.138;2022-09-09T05:51:09;1.23;;;0.57;;
37311;SDS011;23197;53.912;9.138;2022-09-09T05:53:38;0.90;;;0.50;;
37311;SDS011;23197;53.912;9.138;2022-09-09T05:56:05;0.63;;;0.38;;
37311;SDS011;23197;53.912;9.138;2022-09-09T05:58:33;1.10;;;0.52;;
37311;SDS011;23197;53.912;9.138;2022-09-09T06:01:04;0.90;;;0.40;;
37311;SDS011;23197;53.912;9.138;2022-09-09T06:03:32;0.90;;;0.50;;
37311;SDS011;23197;53.912;9.138;2022-09-09T06:06:00;1.45;;;0.73;;
37311;SDS011;23197;53.912;9.138;2022-09-09T06:08:27;2.03;;;0.82;;
37311;SDS011;23197;53.912;9.138;2022-09-09T06:10:53;1.35;;;0.75;;
37311;SDS011;23197;53.912;9.138;2022-09-09T06:13:18;1.23;;;0.70;;
37311;SDS011;23197;53.912;9.138;2022-09-09T06:15:50;1.27;;;0.70;;
37311;SDS011;23197;53.912;9.138;2022-09-09T06:18:17;0.50;;;0.40;;
37311;SDS011;23197;53.912;9.138;2022-09-09T06:20:53;1.15;;;0.60;;
37311;SDS011;23197;53.912;9.138;2022-09-09T06:23:20;1.52;;;0.70;;
37311;SDS011;23197;53.912;9.138;2022-09-09T06:25:46;1.73;;;0.77;;
37311;SDS011;23197;53.912;9.138;2022-09-09T06:28:12;1.17;;;0.60;;
37311;SDS011;23197;53.912;9.138;2022-09-09T06:30:38;1.17;;;0.57;;
37311;SDS011;23197;53.912;9.138;2022-09-09T06:33:05;1.92;;;1.00;;
37311;SDS011;23197;53.912;9.138;2022-09-09T06:35:30;2.05;;;1.00;;
37311;SDS011;23197;53.912;9.138;2022-09-09T06:37:55;1.23;;;0.70;;
37311;SDS011;23197;53.912;9.138;2022-09-09T06:40:24;1.30;;;0.80;;
37311;SDS011;23197;53.912;9.138;2022-09-09T06:42:50;1.08;;;0.60;;
37311;SDS011;23197;53.912;9.138;2022-09-09T06:45:32;1.15;;;0.65;;
37311;SDS011;23197;53.912;9.138;2022-09-09T06:47:57;1.02;;;0.60;;
37311;SDS011;23197;53.912;9.138;2022-09-09T06:50:23;1.10;;;0.60;;
37311;SDS011;23197;53.912;9.138;2022-09-09T06:52:49;1.52;;;0.77;;
37311;SDS011;23197;53.912;9.138;2022-09-09T06:55:15;0.70;;;0.50;;
37311;SDS011;23197;53.912;9.138;2022-09-09T06:57:41;0.85;;;0.50;;
37311;SDS011;23197;53.912;9.138;2022-09-09T07:00:15;1.33;;;0.70;;
37311;SDS011;23197;53.912;9.138;2022-09-09T07:02:40;0.82;;;0.60;;
37311;SDS011;23197;53.912;9.138;2022-09-09T07:05:08;0.60;;;0.50;;
37311;SDS011;23197;53.912;9.138;2022-09-09T07:07:34;1.67;;;1.05;;
37311;SDS011;23197;53.912;9.138;2022-09-09T07:10:00;0.70;;;0.50;;
37311;SDS011;23197;53.912;9.138;2022-09-09T07:12:26;1.25;;;0.80;;
37311;SDS011;23197;53.912;9.138;2022-09-09T07:14:56;1.23;;;0.70;;
37311;SDS011;23197;53.912;9.138;2022-09-09T07:17:22;0.90;;;0.60;;
37311;SDS011;23197;53.912;9.138;2022-09-09T07:19:47;1.20;;;0.80;;
37311;SDS011;23197;53.912;9.138;2022-09-09T07:22:14;1.70;;;0.90;;
37311;SDS011;23197;53.912;9.138;2022-09-09T07:24:40;3.05;;;1.85;;
37311;SDS011;23197;53.912;9.138;2022-09-09T07:27:06;2.60;;;1.50;;
37311;SDS011;23197;53.912;9.138;2022-09-09T07:29:32;3.63;;;1.80;;
37311;SDS011;23197;53.912;9.138;2022-09-09T07:31:58;3.03;;;1.52;;
37311;SDS011;23197;53.912;9.138;2022-09-09T07:34:29;4.00;;;2.28;;
37311;SDS011;23197;53.912;9.138;2022-09-09T07:36:55;3.45;;;2.40;;
37311;SDS011;23197;53.912;9.138;2022-09-09T07:39:22;3.60;;;2.15;;
37311;SDS011;23197;53.912;9.138;2022-09-09T07:41:51;2.40;;;1.42;;
37311;SDS011;23197;53.912;9.138;2022-09-09T07:44:22;1.98;;;1.00;;
37311;SDS011;23197;53.912;9.138;2022-09-09T07:46:56;1.55;;;0.95;;
37311;SDS011;23197;53.912;9.138;2022-09-09T07:49:27;2.97;;;1.80;;
37311;SDS011;23197;53.912;9.138;2022-09-09T07:51:52;2.03;;;1.20;;
37311;SDS011;23197;53.912;9.138;2022-09-09T07:54:18;1.27;;;0.80;;
37311;SDS011;23197;53.912;9.138;2022-09-09T07:56:47;2.47;;;1.27;;
37311;SDS011;23197;53.912;9.138;2022-09-09T07:59:14;1.92;;;1.10;;
37311;SDS011;23197;53.912;9.138;2022-09-09T08:01:43;1.58;;;0.90;;
37311;SDS011;23197;53.912;9.138;2022-09-09T08:04:14;3.55;;;2.40;;
37311;SDS011;23197;53.912;9.138;2022-09-09T08:06:47;3.70;;;1.90;;
37311;SDS011;23197;53.912;9.138;2022-09-09T08:09:19;2.30;;;1.50;;
37311;SDS011;23197;53.912;9.138;2022-09-09T08:11:46;1.90;;;1.23;;
37311;SDS011;23197;53.912;9.138;2022-09-09T08:14:13;0.80;;;0.60;;
37311;SDS011;23197;53.912;9.138;2022-09-09T08:16:41;1.30;;;0.80;;
37311;SDS011;23197;53.912;9.138;2022-09-09T08:19:09;1.33;;;0.70;;
37311;SDS011;23197;53.912;9.138;2022-09-09T08:21:36;1.98;;;1.10;;
37311;SDS011;23197;53.912;9.138;2022-09-09T08:24:04;2.47;;;1.70;;
37311;SDS011;23197;53.912;9.138;2022-09-09T08:26:31;1.05;;;0.70;;
37311;SDS011;23197;53.912;9.138;2022-09-09T08:29:04;2.25;;;1.33;;
37311;SDS011;23197;53.912;9.138;2022-09-09T08:31:32;2.28;;;1.30;;
37311;SDS011;23197;53.912;9.138;2022-09-09T08:34:02;4.00;;;1.50;;
37311;SDS011;23197;53.912;9.138;2022-09-09T08:36:30;1.85;;;1.20;;
37311;SDS011;23197;53.912;9.138;2022-09-09T08:39:02;1.85;;;1.10;;
37311;SDS011;23197;53.912;9.138;2022-09-09T08:44:07;1.98;;;1.40;;
37311;SDS011;23197;53.912;9.138;2022-09-09T08:52:08;1.80;;;1.40;;
37311;SDS011;23197;53.912;9.138;2022-09-09T08:54:40;2.95;;;1.70;;
37311;SDS011;23197;53.912;9.138;2022-09-09T08:57:08;2.80;;;1.80;;
37311;SDS011;23197;53.912;9.138;2022-09-09T08:59:39;2.85;;;2.10;;
37311;SDS011;23197;53.912;9.138;2022-09-09T09:02:24;1.85;;;1.40;;
37311;SDS011;23197;53.912;9.138;2022-09-09T09:13:17;6.50;;;4.78;;
37311;SDS011;23197;53.912;9.138;2022-09-09T09:15:48;5.82;;;4.63;;
37311;SDS011;23197;53.912;9.138;2022-09-09T09:18:19;7.05;;;5.00;;
37311;SDS011;23197;53.912;9.138;2022-09-09T09:20:48;8.10;;;5.45;;
37311;SDS011;23197;53.912;9.138;2022-09-09T09:23:39;9.15;;;6.53;;
37311;SDS011;23197;53.912;9.138;2022-09-09T09:26:10;6.80;;;5.35;;
37311;SDS011;23197;53.912;9.138;2022-09-09T09:28:37;7.93;;;5.43;;
37311;SDS011;23197;53.912;9.138;2022-09-09T09:33:55;7.38;;;4.97;;
37311;SDS011;23197;53.912;9.138;2022-09-09T09:37:00;7.78;;;5.65;;
37311;SDS011;23197;53.912;9.138;2022-09-09T09:39:25;6.65;;;5.50;;
37311;SDS011;23197;53.912;9.138;2022-09-09T09:42:12;6.28;;;5.00;;
37311;SDS011;23197;53.912;9.138;2022-09-09T09:44:40;6.32;;;4.65;;
37311;SDS011;23197;53.912;9.138;2022-09-09T09:47:16;6.30;;;4.38;;
37311;SDS011;23197;53.912;9.138;2022-09-09T09:49:52;6.22;;;5.00;;
37311;SDS011;23197;53.912;9.138;2022-09-09T09:52:28;6.65;;;4.88;;
37311;SDS011;23197;53.912;9.138;2022-09-09T09:54:57;5.90;;;4.10;;
37311;SDS011;23197;53.912;9.138;2022-09-09T09:57:27;5.55;;;4.10;;
37311;SDS011;23197;53.912;9.138;2022-09-09T10:02:48;5.03;;;3.60;;
37311;SDS011;23197;53.912;9.138;2022-09-09T10:08:01;4.63;;;2.63;;
37311;SDS011;23197;53.912;9.138;2022-09-09T10:10:39;3.53;;;2.58;;
37311;SDS011;23197;53.912;9.138;2022-09-09T10:38:03;2.20;;;1.15;;
37311;SDS011;23197;53.912;9.138;2022-09-09T10:46:23;2.50;;;1.10;;
37311;SDS011;23197;53.912;9.138;2022-09-09T10:57:22;3.15;;;1.00;;
37311;SDS011;23197;53.912;9.138;2022-09-09T10:59:58;2.72;;;1.05;;
37311;SDS011;23197;53.912;9.138;2022-09-09T11:02:31;2.22;;;1.00;;
37311;SDS011;23197;53.912;9.138;2022-09-09T11:05:03;1.88;;;0.90;;
37311;SDS011;23197;53.912;9.138;2022-09-09T11:07:40;2.00;;;1.00;;
37311;SDS011;23197;53.912;9.138;2022-09-09T11:10:17;2.72;;;0.98;;
37311;SDS011;23197;53.912;9.138;2022-09-09T11:12:49;2.25;;;1.10;;
37311;SDS011;23197;53.912;9.138;2022-09-09T11:15:52;1.05;;;0.80;;
37311;SDS011;23197;53.912;9.138;2022-09-09T11:18:19;3.08;;;1.23;;
37311;SDS011;23197;53.912;9.138;2022-09-09T11:20:51;2.00;;;1.00;;
37311;SDS011;23197;53.912;9.138;2022-09-09T11:23:26;1.27;;;1.00;;
37311;SDS011;23197;53.912;9.138;2022-09-09T11:26:05;1.83;;;1.05;;
37311;SDS011;23197;53.912;9.138;2022-09-09T11:40:00;2.25;;;1.20;;
37311;SDS011;23197;53.912;9.138;2022-09-09T11:42:47;3.60;;;1.27;;
37311;SDS011;23197;53.912;9.138;2022-09-09T11:45:25;4.40;;;1.20;;
37311;SDS011;23197;53.912;9.138;2022-09-09T11:47:55;3.30;;;1.42;;
37311;SDS011;23197;53.912;9.138;2022-09-09T11:52:48;2.83;;;1.20;;
37311;SDS011;23197;53.912;9.138;2022-09-09T11:57:48;4.60;;;1.40;;
37311;SDS011;23197;53.912;9.138;2022-09-09T12:00:31;3.03;;;1.10;;
37311;SDS011;23197;53.912;9.138;2022-09-09T12:02:58;2.03;;;0.90;;
37311;SDS011;23197;53.912;9.138;2022-09-09T12:05:24;2.08;;;1.02;;
37311;SDS011;23197;53.912;9.138;2022-09-09T12:08:01;3.35;;;1.23;;
37311;SDS011;23197;53.912;9.138;2022-09-09T12:10:35;2.55;;;1.38;;
37311;SDS011;23197;53.912;9.138;2022-09-09T12:15:50;2.78;;;1.40;;
37311;SDS011;23197;53.912;9.138;2022-09-09T12:18:35;3.88;;;1.60;;
37311;SDS011;23197;53.912;9.138;2022-09-09T12:23:30;3.35;;;1.80;;
37311;SDS011;23197;53.912;9.138;2022-09-09T12:28:58;4.63;;;1.90;;
37311;SDS011;23197;53.912;9.138;2022-09-09T12:31:39;3.20;;;2.00;;
37311;SDS011;23197;53.912;9.138;2022-09-09T12:34:15;3.88;;;1.60;;
37311;SDS011;23197;53.912;9.138;2022-09-09T12:37:02;3.72;;;2.20;;
37311;SDS011;23197;53.912;9.138;2022-09-09T12:39:38;3.17;;;2.38;;
37311;SDS011;23197;53.912;9.138;2022-09-09T12:42:18;3.20;;;2.15;;
37311;SDS011;23197;53.912;9.138;2022-09-09T12:44:57;4.72;;;2.45;;
37311;SDS011;23197;53.912;9.138;2022-09-09T12:47:36;5.45;;;2.90;;
37311;SDS011;23197;53.912;9.138;2022-09-09T12:52:42;4.63;;;2.60;;
37311;SDS011;23197;53.912;9.138;2022-09-09T12:55:15;3.17;;;2.30;;
37311;SDS011;23197;53.912;9.138;2022-09-09T12:57:44;4.15;;;2.40;;
37311;SDS011;23197;53.912;9.138;2022-09-09T13:00:15;4.18;;;2.47;;
37311;SDS011;23197;53.912;9.138;2022-09-09T13:02:46;3.17;;;2.22;;
37311;SDS011;23197;53.912;9.138;2022-09-09T13:05:21;3.60;;;2.22;;
37311;SDS011;23197;53.912;9.138;2022-09-09T13:07:47;4.22;;;2.85;;
37311;SDS011;23197;53.912;9.138;2022-09-09T13:10:13;3.60;;;2.35;;
37311;SDS011;23197;53.912;9.138;2022-09-09T13:12:44;3.38;;;2.40;;
37311;SDS011;23197;53.912;9.138;2022-09-09T13:15:12;4.20;;;2.70;;
37311;SDS011;23197;53.912;9.138;2022-09-09T13:17:48;3.20;;;2.13;;
37311;SDS011;23197;53.912;9.138;2022-09-09T13:20:17;4.53;;;2.60;;
37311;SDS011;23197;53.912;9.138;2022-09-09T13:22:44;4.35;;;2.60;;
37311;SDS011;23197;53.912;9.138;2022-09-09T13:27:38;6.07;;;2.60;;
37311;SDS011;23197;53.912;9.138;2022-09-09T13:30:22;5.32;;;2.60;;
37311;SDS011;23197;53.912;9.138;2022-09-09T13:33:00;4.22;;;3.00;;
37311;SDS011;23197;53.912;9.138;2022-09-09T13:35:53;4.80;;;2.72;;
37311;SDS011;23197;53.912;9.138;2022-09-09T13:38:21;4.72;;;2.60;;
37311;SDS011;23197;53.912;9.138;2022-09-09T13:43:21;6.95;;;3.25;;
37311;SDS011;23197;53.912;9.138;2022-09-09T13:45:52;5.57;;;2.60;;
37311;SDS011;23197;53.912;9.138;2022-09-09T13:48:23;2.20;;;1.20;;
37311;SDS011;23197;53.912;9.138;2022-09-09T13:50:56;0.95;;;0.65;;
37311;SDS011;23197;53.912;9.138;2022-09-09T13:53:23;1.77;;;0.90;;
37311;SDS011;23197;53.912;9.138;2022-09-09T13:55:48;0.50;;;0.50;;
37311;SDS011;23197;53.912;9.138;2022-09-09T13:58:16;0.40;;;0.40;;
37311;SDS011;23197;53.912;9.138;2022-09-09T14:00:45;0.50;;;0.50;;
37311;SDS011;23197;53.912;9.138;2022-09-09T14:03:11;1.55;;;0.80;;
37311;SDS011;23197;53.912;9.138;2022-09-09T14:05:37;2.80;;;1.50;;
37311;SDS011;23197;53.912;9.138;2022-09-09T14:08:03;2.05;;;1.52;;
37311;SDS011;23197;53.912;9.138;2022-09-09T14:10:31;1.50;;;1.10;;
37311;SDS011;23197;53.912;9.138;2022-09-09T14:12:56;1.45;;;1.15;;
37311;SDS011;23197;53.912;9.138;2022-09-09T14:15:22;5.03;;;2.30;;
37311;SDS011;23197;53.912;9.138;2022-09-09T14:17:47;2.67;;;1.90;;
37311;SDS011;23197;53.912;9.138;2022-09-09T14:20:13;1.63;;;1.17;;
37311;SDS011;23197;53.912;9.138;2022-09-09T14:22:40;1.92;;;1.10;;
37311;SDS011;23197;53.912;9.138;2022-09-09T14:25:06;4.20;;;2.92;;
37311;SDS011;23197;53.912;9.138;2022-09-09T14:27:32;5.25;;;3.22;;
37311;SDS011;23197;53.912;9.138;2022-09-09T14:29:58;2.88;;;2.00;;
37311;SDS011;23197;53.912;9.138;2022-09-09T14:32:25;2.15;;;1.50;;
37311;SDS011;23197;53.912;9.138;2022-09-09T14:34:50;3.75;;;2.10;;
37311;SDS011;23197;53.912;9.138;2022-09-09T14:37:16;2.08;;;1.50;;
37311;SDS011;23197;53.912;9.138;2022-09-09T14:39:42;2.53;;;1.60;;
37311;SDS011;23197;53.912;9.138;2022-09-09T14:42:12;1.63;;;1.20;;
37311;SDS011;23197;53.912;9.138;2022-09-09T14:44:38;2.22;;;1.20;;
37311;SDS011;23197;53.912;9.138;2022-09-09T14:47:07;1.63;;;1.13;;
37311;SDS011;23197;53.912;9.138;2022-09-09T14:49:33;1.13;;;0.90;;
37311;SDS011;23197;53.912;9.138;2022-09-09T14:52:03;0.73;;;0.73;;
37311;SDS011;23197;53.912;9.138;2022-09-09T14:54:29;0.88;;;0.70;;
37311;SDS011;23197;53.912;9.138;2022-09-09T14:56:55;0.60;;;0.60;;
37311;SDS011;23197;53.912;9.138;2022-09-09T14:59:21;0.63;;;0.52;;
37311;SDS011;23197;53.912;9.138;2022-09-09T15:01:47;0.70;;;0.57;;
37311;SDS011;23197;53.912;9.138;2022-09-09T15:04:13;1.10;;;0.57;;
37311;SDS011;23197;53.912;9.138;2022-09-09T15:06:40;1.20;;;0.60;;
37311;SDS011;23197;53.912;9.138;2022-09-09T15:09:07;0.50;;;0.50;;
37311;SDS011;23197;53.912;9.138;2022-09-09T15:11:34;0.55;;;0.52;;
37311;SDS011;23197;53.912;9.138;2022-09-09T15:14:04;0.68;;;0.50;;
37311;SDS011;23197;53.912;9.138;2022-09-09T15:16:30;0.63;;;0.43;;
37311;SDS011;23197;53.912;9.138;2022-09-09T15:18:59;0.40;;;0.40;;
37311;SDS011;23197;53.912;9.138;2022-09-09T15:21:31;0.60;;;0.50;;
37311;SDS011;23197;53.912;9.138;2022-09-09T15:23:58;1.60;;;0.95;;
37311;SDS011;23197;53.912;9.138;2022-09-09T15:26:24;1.42;;;0.80;;
37311;SDS011;23197;53.912;9.138;2022-09-09T15:28:51;1.17;;;0.80;;
37311;SDS011;23197;53.912;9.138;2022-09-09T15:31:18;0.80;;;0.65;;
37311;SDS011;23197;53.912;9.138;2022-09-09T15:33:50;0.50;;;0.50;;
37311;SDS011;23197;53.912;9.138;2022-09-09T15:36:19;0.75;;;0.43;;
37311;SDS011;23197;53.912;9.138;2022-09-09T15:38:46;0.30;;;0.30;;
37311;SDS011;23197;53.912;9.138;2022-09-09T15:41:13;0.30;;;0.30;;
37311;SDS011;23197;53.912;9.138;2022-09-09T15:43:39;0.77;;;0.40;;
37311;SDS011;23197;53.912;9.138;2022-09-09T15:46:30;0.50;;;0.50;;
37311;SDS011;23197;53.912;9.138;2022-09-09T15:51:31;0.88;;;0.40;;
37311;SDS011;23197;53.912;9.138;2022-09-09T15:53:58;0.30;;;0.30;;
37311;SDS011;23197;53.912;9.138;2022-09-09T15:56:24;0.60;;;0.40;;
37311;SDS011;23197;53.912;9.138;2022-09-09T15:58:52;0.50;;;0.50;;
37311;SDS011;23197;53.912;9.138;2022-09-09T16:01:18;0.40;;;0.40;;
37311;SDS011;23197;53.912;9.138;2022-09-09T16:03:44;0.30;;;0.30;;
37311;SDS011;23197;53.912;9.138;2022-09-09T16:06:11;0.30;;;0.30;;
37311;SDS011;23197;53.912;9.138;2022-09-09T16:08:39;0.30;;;0.30;;
37311;SDS011;23197;53.912;9.138;2022-09-09T16:11:07;0.55;;;0.40;;
37311;SDS011;23197;53.912;9.138;2022-09-09T16:13:45;0.40;;;0.38;;
37311;SDS011;23197;53.912;9.138;2022-09-09T16:16:12;0.30;;;0.30;;
37311;SDS011;23197;53.912;9.138;2022-09-09T16:18:45;0.30;;;0.30;;
37311;SDS011;23197;53.912;9.138;2022-09-09T16:21:16;0.30;;;0.30;;
37311;SDS011;23197;53.912;9.138;2022-09-09T16:23:43;0.50;;;0.50;;
37311;SDS011;23197;53.912;9.138;2022-09-09T16:26:13;0.30;;;0.30;;
37311;SDS011;23197;53.912;9.138;2022-09-09T16:28:40;0.40;;;0.40;;
37311;SDS011;23197;53.912;9.138;2022-09-09T16:31:11;1.33;;;0.90;;
37311;SDS011;23197;53.912;9.138;2022-09-09T16:33:39;1.10;;;0.90;;
37311;SDS011;23197;53.912;9.138;2022-09-09T16:36:12;1.60;;;1.00;;
37311;SDS011;23197;53.912;9.138;2022-09-09T16:38:39;2.35;;;1.20;;
37311;SDS011;23197;53.912;9.138;2022-09-09T16:41:05;1.65;;;1.27;;
37311;SDS011;23197;53.912;9.138;2022-09-09T16:43:34;1.50;;;1.00;;
37311;SDS011;23197;53.912;9.138;2022-09-09T16:46:01;1.85;;;0.88;;
37311;SDS011;23197;53.912;9.138;2022-09-09T16:48:31;1.52;;;1.13;;
37311;SDS011;23197;53.912;9.138;2022-09-09T16:51:02;1.27;;;0.90;;
37311;SDS011;23197;53.912;9.138;2022-09-09T16:53:31;1.00;;;0.80;;
37311;SDS011;23197;53.912;9.138;2022-09-09T16:55:57;1.17;;;0.80;;
37311;SDS011;23197;53.912;9.138;2022-09-09T16:58:23;1.20;;;0.75;;
37311;SDS011;23197;53.912;9.138;2022-09-09T17:00:48;0.77;;;0.57;;
37311;SDS011;23197;53.912;9.138;2022-09-09T17:03:14;1.00;;;0.70;;
37311;SDS011;23197;53.912;9.138;2022-09-09T17:05:40;0.95;;;0.70;;
37311;SDS011;23197;53.912;9.138;2022-09-09T17:08:06;0.60;;;0.50;;
37311;SDS011;23197;53.912;9.138;2022-09-09T17:10:32;0.50;;;0.50;;
37311;SDS011;23197;53.912;9.138;2022-09-09T17:12:57;0.35;;;0.35;;
37311;SDS011;23197;53.912;9.138;2022-09-09T17:15:23;0.93;;;0.55;;
37311;SDS011;23197;53.912;9.138;2022-09-09T17:17:48;0.40;;;0.30;;
37311;SDS011;23197;53.912;9.138;2022-09-09T17:20:17;0.40;;;0.40;;
37311;SDS011;23197;53.912;9.138;2022-09-09T17:22:43;0.60;;;0.40;;